Silverville, Indiana
Current Conditions -  °F | °C
As of 6:35 AM on Thursday 27 Nov 2014 (Local Time) from KDCY Reporting Station
Overcast Overcast  
Wind Chill: 18°   Ceiling: 1800
Heat Index: 29°   Visibility: 10mi
Dew Point: 26°   Wind: 14mph
Humidity: 87%   Direction: 320°NW
Pressure: 30.28"   Gusts: NA
Location:  38.7478°N, 86.6215°W
Report Text: KDCY 271135Z AUTO 32012KT 10SM OVC018 M02/M03 A3028 RMK AO2 T10161035
Loading
Personal Weather Stations






























Interactive Weather Map New forecast layout! Learn more

10-Day Weather Forecast

Advertisements
Track Severe Weather on mobile